Time;durP1;ratioP1;P1;durP2;ratioP2;P2;SDS_P1;SDS_P2;PMS_P1;PMS_P2;Temp;Humidity;BMP_temperature;BMP_pressure;BME280_temperature;BME280_humidity;BME280_pressure;Samples;Min_cycle;Max_cycle;Signal;HPM_P1;HPM_P2
2021/07/16 04:02:47;;;;;;;16.37;12.00;;;19.70;99.90;;;;;;4968244;28;20487;-69
2021/07/16 04:05:14;;;;;;;12.27;8.97;;;19.60;99.90;;;;;;4971197;28;20485;-70
2021/07/16 04:07:46;;;;;;;16.83;10.23;;;19.60;99.90;;;;;;4955305;28;20837;-68
2021/07/16 04:10:14;;;;;;;18.83;10.70;;;19.60;99.90;;;;;;4964380;28;20512;-69
2021/07/16 04:12:41;;;;;;;15.20;9.63;;;19.60;99.90;;;;;;4940730;29;20469;-69
2021/07/16 04:15:08;;;;;;;18.10;9.80;;;19.60;99.90;;;;;;4935735;29;20522;-70
2021/07/16 04:17:35;;;;;;;15.40;9.63;;;19.60;99.90;;;;;;4951621;29;20473;-68
2021/07/16 04:20:04;;;;;;;15.87;11.70;;;19.60;99.90;;;;;;4940047;29;20469;-69
2021/07/16 04:22:30;;;;;;;13.53;11.53;;;19.60;99.90;;;;;;4943434;28;21035;-69
2021/07/16 04:24:57;;;;;;;15.63;10.63;;;19.70;99.90;;;;;;4935622;29;20549;-69
2021/07/16 04:27:23;;;;;;;15.50;11.77;;;19.70;99.90;;;;;;4944585;29;20466;-69
2021/07/16 04:29:50;;;;;;;10.57;9.53;;;19.60;99.90;;;;;;4941581;29;20820;-69
2021/07/16 04:32:17;;;;;;;16.43;9.93;;;19.70;99.90;;;;;;4943604;29;20489;-69
2021/07/16 04:34:44;;;;;;;15.47;9.40;;;19.80;99.90;;;;;;4935741;29;20521;-69
2021/07/16 04:37:12;;;;;;;20.40;9.97;;;19.90;99.90;;;;;;4950387;29;20464;-69
2021/07/16 04:39:39;;;;;;;13.47;8.97;;;20.00;99.90;;;;;;4953898;28;20473;-70
2021/07/16 04:42:07;;;;;;;13.00;9.10;;;20.30;99.90;;;;;;4953774;28;20849;-70
2021/07/16 04:44:33;;;;;;;10.30;8.70;;;20.40;99.90;;;;;;4953398;29;20898;-69
2021/07/16 04:47:01;;;;;;;10.90;9.80;;;20.60;99.90;;;;;;4937557;29;20473;-69
2021/07/16 04:49:28;;;;;;;16.70;10.10;;;20.60;99.90;;;;;;4935689;29;20507;-69
2021/07/16 04:51:55;;;;;;;14.40;9.23;;;20.70;99.90;;;;;;4942715;28;20481;-69
2021/07/16 04:54:23;;;;;;;11.43;8.87;;;20.90;99.90;;;;;;4935188;29;20477;-70
2021/07/16 04:56:49;;;;;;;13.67;9.07;;;20.80;99.90;;;;;;4948522;29;20488;-69
2021/07/16 04:59:16;;;;;;;13.07;9.53;;;20.80;99.90;;;;;;4950249;29;20472;-69
2021/07/16 05:01:43;;;;;;;13.70;9.20;;;20.70;99.90;;;;;;4946337;29;20484;-68
2021/07/16 05:04:10;;;;;;;13.20;9.10;;;20.70;99.90;;;;;;4954471;29;20461;-68
2021/07/16 05:06:36;;;;;;;13.90;8.83;;;20.70;99.90;;;;;;4943886;29;20501;-69
2021/07/16 05:09:04;;;;;;;13.67;8.97;;;20.70;99.90;;;;;;4935760;29;20469;-69
2021/07/16 05:11:33;;;;;;;14.50;9.63;;;20.70;99.90;;;;;;4942003;28;20481;-69
2021/07/16 05:14:00;;;;;;;10.00;8.67;;;20.80;99.90;;;;;;4935163;29;20476;-68
2021/07/16 05:16:27;;;;;;;10.63;9.20;;;20.70;99.90;;;;;;4940470;29;20453;-69
2021/07/16 05:18:54;;;;;;;22.17;9.00;;;20.70;99.90;;;;;;4937287;29;20462;-69
2021/07/16 05:21:21;;;;;;;15.83;9.10;;;20.70;99.90;;;;;;4936053;29;20611;-69
2021/07/16 05:23:47;;;;;;;11.37;8.47;;;20.70;99.90;;;;;;4943825;29;20464;-69
2021/07/16 05:26:14;;;;;;;11.57;10.20;;;20.60;99.90;;;;;;4951886;29;21036;-69
2021/07/16 05:28:44;;;;;;;13.33;9.10;;;20.60;99.90;;;;;;4937247;29;20468;-69
2021/07/16 05:31:11;;;;;;;12.17;8.17;;;20.60;99.90;;;;;;4942188;29;20487;-69
2021/07/16 05:33:39;;;;;;;13.30;9.30;;;20.60;99.90;;;;;;4953896;29;20921;-69
2021/07/16 05:36:06;;;;;;;14.00;8.53;;;20.60;99.90;;;;;;4946580;29;20931;-69
2021/07/16 05:38:33;;;;;;;14.90;9.33;;;20.60;99.90;;;;;;4936529;29;20465;-68
2021/07/16 05:41:01;;;;;;;14.03;9.37;;;20.50;99.90;;;;;;4964342;28;20480;-68
2021/07/16 05:43:27;;;;;;;13.07;9.07;;;20.50;99.90;;;;;;4966938;29;20527;-68
2021/07/16 05:45:55;;;;;;;18.37;8.73;;;20.40;99.90;;;;;;4964661;29;20485;-68
2021/07/16 05:48:22;;;;;;;14.63;10.67;;;20.40;99.90;;;;;;4967377;29;20465;-68
2021/07/16 05:50:49;;;;;;;17.20;9.17;;;20.40;99.90;;;;;;4966715;28;20555;-67
2021/07/16 05:53:17;;;;;;;13.43;8.90;;;20.40;99.90;;;;;;4952190;29;20465;-68
2021/07/16 05:55:44;;;;;;;13.40;9.87;;;20.40;99.90;;;;;;4954672;29;20461;-68
2021/07/16 05:58:10;;;;;;;12.40;9.87;;;20.40;99.90;;;;;;4964696;29;20464;-67
2021/07/16 06:00:37;;;;;;;13.43;9.23;;;20.40;99.90;;;;;;4959941;29;20513;-68
2021/07/16 06:03:05;;;;;;;16.43;10.20;;;20.40;99.90;;;;;;4946981;29;20496;-68
2021/07/16 06:05:32;;;;;;;16.53;9.10;;;20.50;99.90;;;;;;4951282;29;20499;-68
2021/07/16 06:07:59;;;;;;;15.77;9.47;;;20.50;99.90;;;;;;4950417;29;20481;-67
2021/07/16 06:10:26;;;;;;;11.23;9.73;;;20.50;99.90;;;;;;4955381;28;21067;-67
2021/07/16 06:12:53;;;;;;;10.87;9.60;;;20.60;99.90;;;;;;4959487;29;20462;-68
2021/07/16 06:15:20;;;;;;;10.47;9.50;;;20.60;99.90;;;;;;4944592;29;20453;-68
2021/07/16 06:17:47;;;;;;;15.90;9.50;;;20.60;99.90;;;;;;4943392;29;20564;-67
2021/07/16 06:20:15;;;;;;;15.27;9.53;;;20.70;99.90;;;;;;4950129;28;20834;-67
2021/07/16 06:22:42;;;;;;;15.33;9.57;;;20.80;99.90;;;;;;4945398;29;20503;-73
2021/07/16 06:25:10;;;;;;;15.30;9.73;;;20.90;99.90;;;;;;4944565;29;20531;-68
2021/07/16 06:27:38;;;;;;;11.03;10.00;;;20.80;99.90;;;;;;4943837;29;20477;-71
2021/07/16 06:30:06;;;;;;;14.60;9.63;;;20.90;99.90;;;;;;4958119;29;20471;-70
2021/07/16 06:32:33;;;;;;;12.57;11.03;;;20.90;99.90;;;;;;4947437;29;20462;-70
2021/07/16 06:35:00;;;;;;;19.70;10.57;;;20.90;99.90;;;;;;4960694;29;20542;-70
2021/07/16 06:37:28;;;;;;;13.93;10.50;;;21.00;99.90;;;;;;4948051;29;20497;-70
2021/07/16 06:39:56;;;;;;;16.30;11.73;;;21.20;99.90;;;;;;4962566;29;20472;-69
2021/07/16 06:42:23;;;;;;;14.87;10.70;;;21.20;99.90;;;;;;4963514;28;21000;-69
2021/07/16 06:44:49;;;;;;;13.73;10.83;;;21.20;99.90;;;;;;4956124;29;20469;-70
2021/07/16 06:47:16;;;;;;;11.87;10.53;;;21.20;99.90;;;;;;4945480;29;20470;-69
2021/07/16 06:49:44;;;;;;;15.50;10.63;;;21.20;99.90;;;;;;4948810;29;20990;-70
2021/07/16 06:52:11;;;;;;;16.83;10.90;;;21.20;99.90;;;;;;4961301;28;20968;-70
2021/07/16 06:54:39;;;;;;;15.10;10.20;;;21.30;99.90;;;;;;4956101;29;20848;-70
2021/07/16 06:57:06;;;;;;;12.80;11.03;;;21.30;99.90;;;;;;4958600;29;20456;-70
2021/07/16 06:59:33;;;;;;;19.47;11.80;;;21.40;99.90;;;;;;4957156;29;20496;-68
2021/07/16 07:02:00;;;;;;;16.77;11.30;;;21.50;99.90;;;;;;4939918;29;20909;-69
2021/07/16 07:04:26;;;;;;;16.77;11.00;;;21.50;99.90;;;;;;4941370;29;20471;-69
2021/07/16 07:06:53;;;;;;;15.70;12.30;;;21.70;99.90;;;;;;4945983;29;20501;-69
2021/07/16 07:09:19;;;;;;;15.43;12.83;;;21.80;99.90;;;;;;4947826;29;20480;-68
2021/07/16 07:11:47;;;;;;;15.27;12.10;;;21.80;99.90;;;;;;4942037;29;20490;-68
2021/07/16 07:14:14;;;;;;;17.57;12.67;;;21.90;99.90;;;;;;4937411;29;20790;-68
2021/07/16 07:16:41;;;;;;;14.70;13.17;;;21.90;99.90;;;;;;4951045;29;20516;-68
2021/07/16 07:19:07;;;;;;;13.87;11.77;;;21.90;99.90;;;;;;4938528;29;20512;-67
2021/07/16 07:21:34;;;;;;;14.97;12.00;;;21.80;99.90;;;;;;4936754;29;20497;-68
2021/07/16 07:24:01;;;;;;;15.20;11.80;;;21.90;99.90;;;;;;4951897;29;20452;-68
2021/07/16 07:26:30;;;;;;;15.47;11.77;;;22.00;99.90;;;;;;4948891;29;20515;-67
2021/07/16 07:28:58;;;;;;;21.80;12.63;;;22.10;99.90;;;;;;4948476;29;20458;-67
2021/07/16 07:31:25;;;;;;;13.67;12.27;;;22.10;99.90;;;;;;4937752;29;20493;-68
2021/07/16 07:33:52;;;;;;;13.93;11.87;;;22.20;99.90;;;;;;4948768;29;20469;-67
2021/07/16 07:36:18;;;;;;;21.67;12.00;;;22.20;99.90;;;;;;4950191;29;20859;-67
2021/07/16 07:38:45;;;;;;;21.30;11.73;;;22.30;99.90;;;;;;4951208;29;20539;-67
2021/07/16 07:41:12;;;;;;;18.60;11.73;;;22.40;99.90;;;;;;4947913;29;20484;-68
2021/07/16 07:43:38;;;;;;;13.17;11.53;;;22.60;99.90;;;;;;4945147;29;20519;-68
2021/07/16 07:46:06;;;;;;;26.50;11.90;;;22.50;99.90;;;;;;4949358;29;20481;-67
2021/07/16 07:48:33;;;;;;;18.20;12.47;;;22.60;99.90;;;;;;4953844;29;20468;-68
2021/07/16 07:51:00;;;;;;;19.00;12.70;;;22.60;99.90;;;;;;4954492;28;20480;-68
2021/07/16 07:53:26;;;;;;;20.73;13.33;;;22.50;99.90;;;;;;4953592;29;20776;-67
2021/07/16 07:55:53;;;;;;;17.13;11.60;;;22.50;99.90;;;;;;4948140;29;21012;-67
2021/07/16 07:58:20;;;;;;;14.27;12.10;;;22.60;99.90;;;;;;4955412;29;20501;-66
2021/07/16 08:00:47;;;;;;;23.73;14.20;;;22.80;99.90;;;;;;4942566;29;20839;-66
2021/07/16 08:03:15;;;;;;;21.63;13.70;;;22.90;99.90;;;;;;4935846;29;20981;-72
2021/07/16 08:05:41;;;;;;;18.40;11.57;;;22.80;99.90;;;;;;4938777;29;21017;-67
2021/07/16 08:08:08;;;;;;;19.20;13.70;;;22.90;99.90;;;;;;4946713;29;21008;-68
2021/07/16 08:10:35;;;;;;;15.73;12.70;;;23.00;99.90;;;;;;4950024;28;20488;-68
2021/07/16 08:13:01;;;;;;;21.60;13.60;;;23.10;99.90;;;;;;4951256;28;20476;-68
2021/07/16 08:15:28;;;;;;;14.43;11.87;;;23.30;99.90;;;;;;4944469;29;20460;-68
2021/07/16 08:17:55;;;;;;;14.37;11.80;;;23.40;99.90;;;;;;4947689;29;20461;-68
2021/07/16 08:20:23;;;;;;;16.63;11.80;;;23.40;99.90;;;;;;4947350;29;20512;-67
2021/07/16 08:22:50;;;;;;;17.83;12.43;;;23.40;99.90;;;;;;4942148;29;20808;-70
2021/07/16 08:25:16;;;;;;;13.43;11.23;;;23.40;99.90;;;;;;4951021;28;20863;-67
2021/07/16 08:27:44;;;;;;;17.37;10.97;;;23.40;99.90;;;;;;4938929;29;20498;-70
2021/07/16 08:30:11;;;;;;;20.20;13.37;;;23.50;99.90;;;;;;4944999;29;20496;-68
2021/07/16 08:32:38;;;;;;;14.70;11.90;;;23.50;99.90;;;;;;4953520;29;20480;-68
2021/07/16 08:35:06;;;;;;;14.43;12.93;;;23.60;99.90;;;;;;4954050;29;20535;-67
2021/07/16 08:37:35;;;;;;;18.57;13.43;;;23.60;99.90;;;;;;4952913;29;20465;-69
2021/07/16 08:40:02;;;;;;;16.80;13.13;;;23.50;99.90;;;;;;4951884;29;20453;-68
2021/07/16 08:42:30;;;;;;;20.93;13.60;;;23.40;99.90;;;;;;4951445;29;21011;-68
2021/07/16 08:44:56;;;;;;;16.03;13.13;;;23.50;99.90;;;;;;4948027;29;20933;-68
2021/07/16 08:47:24;;;;;;;19.13;11.83;;;23.60;99.90;;;;;;4947654;29;20492;-68
2021/07/16 08:49:50;;;;;;;17.83;12.23;;;23.70;99.90;;;;;;4954039;29;20524;-68
2021/07/16 08:52:18;;;;;;;18.53;14.30;;;23.70;99.90;;;;;;4950817;28;20496;-68
2021/07/16 08:54:48;;;;;;;20.03;14.53;;;23.70;99.90;;;;;;4949103;29;20464;-68
2021/07/16 08:57:16;;;;;;;15.97;13.23;;;23.80;99.90;;;;;;4946697;29;20461;-69
2021/07/16 08:59:43;;;;;;;17.40;13.43;;;23.80;99.90;;;;;;4949492;29;20456;-68
2021/07/16 09:02:10;;;;;;;17.47;13.90;;;23.80;99.90;;;;;;4944592;29;20500;-68
2021/07/16 09:04:39;;;;;;;19.80;14.17;;;23.90;99.90;;;;;;4950110;29;20473;-68
2021/07/16 09:07:06;;;;;;;20.10;13.30;;;23.80;99.90;;;;;;4940035;29;20842;-68
2021/07/16 09:09:35;;;;;;;14.07;12.80;;;23.80;99.90;;;;;;4951446;29;20779;-68
2021/07/16 09:12:09;;;;;;;14.83;12.27;;;23.90;99.90;;;;;;4949548;29;20544;-68
2021/07/16 09:14:36;;;;;;;14.77;12.80;;;24.00;99.90;;;;;;4952576;29;20512;-68
2021/07/16 09:17:06;;;;;;;17.70;12.80;;;24.10;99.90;;;;;;4952522;29;20516;-68
2021/07/16 09:19:36;;;;;;;16.63;13.10;;;24.20;99.90;;;;;;4946481;29;20468;-68
2021/07/16 09:22:06;;;;;;;17.37;12.90;;;24.20;99.90;;;;;;4953405;29;20555;-73
2021/07/16 09:24:33;;;;;;;20.33;13.63;;;24.20;99.90;;;;;;4946145;28;20479;-68
2021/07/16 09:27:00;;;;;;;16.87;13.33;;;24.10;99.90;;;;;;4938573;29;20541;-68
2021/07/16 09:29:29;;;;;;;21.00;13.90;;;24.20;99.90;;;;;;4939325;28;20468;-69
2021/07/16 09:32:06;;;;;;;15.10;13.53;;;24.30;99.90;;;;;;4949254;28;20841;-69
2021/07/16 09:34:33;;;;;;;19.57;13.13;;;24.40;99.90;;;;;;4949179;29;20524;-69
2021/07/16 09:37:08;;;;;;;16.30;12.47;;;24.50;99.90;;;;;;4948392;29;20548;-68
2021/07/16 09:39:35;;;;;;;14.20;12.80;;;24.60;99.90;;;;;;4948606;29;20498;-69
2021/07/16 09:42:03;;;;;;;17.63;13.50;;;24.80;99.90;;;;;;4948168;29;20488;-68
2021/07/16 09:44:33;;;;;;;16.20;12.57;;;24.90;99.90;;;;;;4940891;29;20827;-68
2021/07/16 09:47:14;;;;;;;13.90;12.43;;;25.00;99.90;;;;;;4954378;28;20480;-68
2021/07/16 09:49:42;;;;;;;16.97;12.83;;;25.10;99.90;;;;;;4951662;29;20541;-69
2021/07/16 09:52:10;;;;;;;14.30;12.90;;;25.20;99.90;;;;;;4940820;28;20493;-71
2021/07/16 09:54:37;;;;;;;14.33;13.13;;;25.40;99.90;;;;;;4947340;29;20523;-68
2021/07/16 09:57:04;;;;;;;15.90;13.80;;;25.50;99.90;;;;;;4949331;28;20481;-73
2021/07/16 09:59:33;;;;;;;14.73;12.47;;;25.70;99.90;;;;;;4938526;29;20939;-69
2021/07/16 10:02:00;;;;;;;16.10;12.30;;;25.90;99.90;;;;;;4941546;29;20502;-69
2021/07/16 10:04:32;;;;;;;13.97;12.77;;;26.00;99.90;;;;;;4953170;28;20458;-68
2021/07/16 10:07:00;;;;;;;14.23;12.73;;;26.00;99.90;;;;;;4933773;29;20499;-68
2021/07/16 10:09:27;;;;;;;15.00;12.83;;;26.00;99.90;;;;;;4947117;28;20461;-68
2021/07/16 10:11:55;;;;;;;15.53;13.03;;;25.90;99.90;;;;;;4954454;28;20547;-68
2021/07/16 10:14:23;;;;;;;14.47;13.00;;;25.90;99.90;;;;;;4946574;28;20819;-68
2021/07/16 10:16:52;;;;;;;13.20;12.13;;;26.00;99.90;;;;;;4942185;28;20461;-68
2021/07/16 10:19:20;;;;;;;14.53;12.13;;;25.90;99.90;;;;;;4934350;29;20501;-69
2021/07/16 10:21:48;;;;;;;13.53;12.30;;;25.90;99.90;;;;;;4935277;29;20525;-68
2021/07/16 10:24:20;;;;;;;13.40;12.20;;;26.00;99.90;;;;;;4939371;29;20877;-67
2021/07/16 10:26:50;;;;;;;16.40;12.00;;;26.10;99.90;;;;;;4942108;29;20494;-68
2021/07/16 10:29:34;;;;;;;12.43;10.73;;;26.20;99.90;;;;;;4952990;29;20560;-68
2021/07/16 10:32:02;;;;;;;15.63;11.50;;;26.30;99.90;;;;;;4946129;29;20508;-69
2021/07/16 10:34:37;;;;;;;15.40;11.93;;;26.20;99.90;;;;;;4951462;29;20480;-67
2021/07/16 10:37:06;;;;;;;17.87;12.90;;;26.20;99.90;;;;;;4946132;28;20464;-70
2021/07/16 10:39:50;;;;;;;14.23;12.83;;;26.30;99.90;;;;;;4945414;29;20468;-72
2021/07/16 10:42:39;;;;;;;13.53;12.23;;;26.40;99.90;;;;;;4951553;28;20497;-72
2021/07/16 10:45:08;;;;;;;14.97;13.67;;;26.60;99.90;;;;;;4943167;29;20525;-73
2021/07/16 10:47:37;;;;;;;12.73;11.53;;;26.60;99.90;;;;;;4951466;29;20501;-72
2021/07/16 10:50:07;;;;;;;14.30;12.80;;;26.70;99.90;;;;;;4948453;29;20464;-73
2021/07/16 10:52:46;;;;;;;14.50;13.13;;;26.70;99.90;;;;;;4940316;29;20831;-71
2021/07/16 10:55:14;;;;;;;13.10;11.80;;;26.80;99.90;;;;;;4952599;29;20505;-73
2021/07/16 10:57:41;;;;;;;12.33;11.13;;;26.80;99.90;;;;;;4953097;29;20459;-72
2021/07/16 11:00:10;;;;;;;13.87;12.00;;;26.80;99.90;;;;;;4954498;29;20481;-72
2021/07/16 11:02:46;;;;;;;12.40;11.33;;;27.00;99.90;;;;;;4941537;29;20491;-71
2021/07/16 11:05:50;;;;;;;12.80;11.60;;;27.00;99.90;;;;;;4947843;29;20610;-73
2021/07/16 11:08:42;;;;;;;16.17;10.77;;;26.90;99.90;;;;;;4945235;29;22365;-71
2021/07/16 11:11:10;;;;;;;12.57;11.13;;;27.10;99.90;;;;;;4930345;29;20487;-72
2021/07/16 11:13:44;;;;;;;11.93;11.03;;;27.10;99.90;;;;;;4945841;29;20474;-73
2021/07/16 11:16:39;;;;;;;13.33;10.23;;;27.20;99.90;;;;;;4948022;29;20482;-72
2021/07/16 11:19:21;;;;;;;12.87;10.00;;;27.30;99.90;;;;;;4936663;29;20536;-72
2021/07/16 11:22:05;;;;;;;13.83;10.57;;;27.40;99.90;;;;;;4941110;29;20515;-73
2021/07/16 11:24:34;;;;;;;10.73;9.73;;;27.50;99.90;;;;;;4936691;29;20465;-73
2021/07/16 11:27:09;;;;;;;11.40;10.40;;;27.60;99.90;;;;;;4940824;29;20568;-72
2021/07/16 11:29:37;;;;;;;10.37;9.47;;;27.70;99.90;;;;;;4936269;29;20450;-73
2021/07/16 11:32:07;;;;;;;9.40;8.57;;;27.90;99.90;;;;;;4952338;28;20500;-73
2021/07/16 11:34:37;;;;;;;12.40;10.40;;;27.90;99.90;;;;;;4955044;29;20948;-72
2021/07/16 11:37:05;;;;;;;8.83;8.10;;;27.80;99.90;;;;;;4944706;29;21083;-70
2021/07/16 11:39:33;;;;;;;9.67;8.67;;;27.70;99.90;;;;;;4948191;29;20467;-70
2021/07/16 11:42:00;;;;;;;8.80;8.00;;;27.70;99.90;;;;;;4953586;29;20490;-70
2021/07/16 11:44:28;;;;;;;9.53;8.70;;;27.80;99.90;;;;;;4937240;29;20472;-70
2021/07/16 11:46:56;;;;;;;10.83;9.00;;;27.80;99.90;;;;;;4944717;29;20645;-70
2021/07/16 11:49:31;;;;;;;10.47;8.07;;;27.80;99.90;;;;;;4953804;28;20999;-70
2021/07/16 11:52:00;;;;;;;9.70;8.73;;;27.60;99.90;;;;;;4943376;29;20564;-70
2021/07/16 11:54:28;;;;;;;12.70;8.87;;;27.70;99.90;;;;;;4948538;29;20474;-70
2021/07/16 11:56:57;;;;;;;12.60;8.80;;;27.80;99.90;;;;;;4948577;29;20509;-70
2021/07/16 11:59:24;;;;;;;11.03;7.33;;;27.90;99.90;;;;;;4943802;29;20468;-70
2021/07/16 12:02:07;;;;;;;8.00;7.30;;;28.00;99.90;;;;;;4941661;29;20567;-70
2021/07/16 12:04:34;;;;;;;11.20;6.77;;;27.90;99.90;;;;;;4941030;28;20876;-69
2021/07/16 12:07:02;;;;;;;8.47;7.73;;;28.00;99.90;;;;;;4939292;29;20489;-71
2021/07/16 12:09:34;;;;;;;9.17;8.27;;;27.90;99.90;;;;;;4941866;29;20469;-70
2021/07/16 12:12:06;;;;;;;10.20;9.17;;;28.00;99.90;;;;;;4935975;29;20489;-70
2021/07/16 12:14:51;;;;;;;11.17;10.10;;;28.10;99.90;;;;;;4946045;29;20471;-70
2021/07/16 12:17:21;;;;;;;12.50;11.33;;;28.20;99.90;;;;;;4949090;28;20480;-70
2021/07/16 12:19:48;;;;;;;10.73;9.50;;;28.20;99.90;;;;;;4946279;29;20558;-70
2021/07/16 12:22:20;;;;;;;11.90;10.80;;;28.40;99.90;;;;;;4953896;29;20836;-70
2021/07/16 12:24:47;;;;;;;12.40;11.00;;;28.50;99.90;;;;;;4953421;29;20969;-70
2021/07/16 12:27:15;;;;;;;13.97;12.00;;;28.20;99.90;;;;;;4953782;29;20495;-70
2021/07/16 12:29:43;;;;;;;11.83;10.10;;;28.10;99.90;;;;;;4948405;29;21040;-70
2021/07/16 12:32:10;;;;;;;9.80;8.80;;;28.10;99.90;;;;;;4934524;29;20891;-70
2021/07/16 12:34:44;;;;;;;10.47;9.70;;;28.10;99.90;;;;;;4937702;29;20514;-70
2021/07/16 12:37:13;;;;;;;14.60;9.70;;;28.20;99.90;;;;;;4950042;29;20534;-70
2021/07/16 12:39:44;;;;;;;10.60;9.47;;;28.10;99.90;;;;;;4952798;29;20481;-70
2021/07/16 12:42:12;;;;;;;13.63;10.20;;;28.10;99.90;;;;;;4945140;29;20494;-70
2021/07/16 12:44:39;;;;;;;13.63;9.83;;;28.00;99.90;;;;;;4945649;29;20470;-70
2021/07/16 12:47:06;;;;;;;19.07;9.27;;;27.90;99.90;;;;;;4953957;29;20505;-70
2021/07/16 12:49:33;;;;;;;11.07;8.10;;;27.80;99.90;;;;;;4952398;29;20813;-70
2021/07/16 12:52:11;;;;;;;8.17;7.47;;;28.00;99.90;;;;;;4952757;29;20553;-70
2021/07/16 12:54:37;;;;;;;10.20;8.67;;;28.10;99.90;;;;;;4952536;29;21040;-70
2021/07/16 12:57:18;;;;;;;13.60;9.23;;;28.10;99.90;;;;;;4953736;29;20544;-70
2021/07/16 12:59:48;;;;;;;9.40;8.50;;;28.00;99.90;;;;;;4951682;28;20478;-70
2021/07/16 13:02:24;;;;;;;10.00;8.13;;;28.00;99.90;;;;;;4938947;29;21070;-70
2021/07/16 13:04:51;;;;;;;8.37;7.57;;;27.90;99.90;;;;;;4935316;29;20480;-70
2021/07/16 13:07:25;;;;;;;12.53;8.47;;;27.80;99.90;;;;;;4948128;29;20492;-70
2021/07/16 13:09:52;;;;;;;11.10;8.03;;;27.80;99.90;;;;;;4938530;29;20473;-70
2021/07/16 13:12:22;;;;;;;10.90;8.47;;;28.00;99.90;;;;;;4950611;29;20505;-69
2021/07/16 13:14:53;;;;;;;13.97;9.30;;;28.10;99.90;;;;;;4941409;29;20579;-70
2021/07/16 13:17:22;;;;;;;10.47;8.00;;;28.00;99.90;;;;;;4933709;29;20566;-70
2021/07/16 13:19:53;;;;;;;9.73;8.60;;;28.00;99.90;;;;;;4951786;29;20491;-70
2021/07/16 13:22:20;;;;;;;12.27;8.47;;;28.10;99.90;;;;;;4938686;29;20486;-70
2021/07/16 13:24:48;;;;;;;13.47;8.60;;;28.00;99.90;;;;;;4944518;29;20481;-70
2021/07/16 13:27:15;;;;;;;13.80;8.33;;;28.00;99.90;;;;;;4953110;29;20470;-70
2021/07/16 13:29:43;;;;;;;9.47;7.60;;;28.10;99.90;;;;;;4944885;29;20478;-69
2021/07/16 13:32:10;;;;;;;12.40;8.77;;;28.30;99.90;;;;;;4953102;29;20880;-70
2021/07/16 13:34:37;;;;;;;10.67;9.43;;;28.30;99.90;;;;;;4952739;29;20484;-70
2021/07/16 13:37:04;;;;;;;11.70;7.97;;;28.10;99.90;;;;;;4951801;29;20475;-70
2021/07/16 13:39:30;;;;;;;13.27;9.47;;;28.20;99.90;;;;;;4951647;29;20518;-70
2021/07/16 13:41:57;;;;;;;9.70;7.77;;;28.10;99.90;;;;;;4952954;29;20491;-70
2021/07/16 13:44:24;;;;;;;11.13;9.77;;;28.10;99.90;;;;;;4949389;29;20530;-70
2021/07/16 13:46:52;;;;;;;13.67;8.90;;;28.00;99.90;;;;;;4952715;29;20475;-70
2021/07/16 13:49:18;;;;;;;9.70;8.60;;;27.90;99.90;;;;;;4952005;29;20501;-70
2021/07/16 13:51:45;;;;;;;8.30;7.53;;;28.10;99.90;;;;;;4952293;29;20490;-69
2021/07/16 13:54:12;;;;;;;12.53;8.77;;;28.00;99.90;;;;;;4952464;29;20466;-69
2021/07/16 13:56:39;;;;;;;14.80;8.10;;;28.10;99.90;;;;;;4935661;29;20662;-69
2021/07/16 13:59:06;;;;;;;10.43;8.70;;;28.10;99.90;;;;;;4946184;29;20476;-70
2021/07/16 14:01:33;;;;;;;9.10;8.40;;;28.20;99.90;;;;;;4940705;29;20518;-70
2021/07/16 14:04:01;;;;;;;11.30;7.90;;;28.40;99.90;;;;;;4949866;29;20473;-70
2021/07/16 14:06:27;;;;;;;10.37;8.27;;;28.70;99.90;;;;;;4950836;29;20968;-70
2021/07/16 14:08:54;;;;;;;10.10;7.73;;;28.80;99.90;;;;;;4946498;29;20538;-70
2021/07/16 14:11:20;;;;;;;9.77;7.57;;;28.60;99.90;;;;;;4936517;29;20499;-70
2021/07/16 14:13:47;;;;;;;8.90;7.27;;;28.70;99.90;;;;;;4948297;29;20979;-70
2021/07/16 14:16:14;;;;;;;8.80;7.87;;;28.60;99.90;;;;;;4951172;28;20479;-70
2021/07/16 14:18:40;;;;;;;8.20;7.43;;;28.60;99.90;;;;;;4947801;29;20544;-70
2021/07/16 14:21:09;;;;;;;14.17;8.60;;;28.70;99.90;;;;;;4939308;29;20976;-70
2021/07/16 14:23:35;;;;;;;8.67;7.53;;;28.70;99.90;;;;;;4943977;29;20636;-70
2021/07/16 14:26:04;;;;;;;10.60;8.00;;;28.70;99.90;;;;;;4952487;29;20521;-70
2021/07/16 14:28:32;;;;;;;11.07;8.00;;;28.50;99.90;;;;;;4951763;29;20494;-70
2021/07/16 14:30:58;;;;;;;11.53;8.43;;;28.40;99.90;;;;;;4937222;29;20496;-69
2021/07/16 14:33:26;;;;;;;12.47;9.33;;;28.50;99.90;;;;;;4947613;29;20531;-70
2021/07/16 14:35:52;;;;;;;11.90;9.30;;;28.40;99.90;;;;;;4940441;29;20481;-69
2021/07/16 14:38:20;;;;;;;10.80;8.30;;;28.40;99.90;;;;;;4949053;29;20524;-69
2021/07/16 14:40:47;;;;;;;12.53;8.20;;;28.40;99.90;;;;;;4954723;29;20499;-70
2021/07/16 14:43:14;;;;;;;11.83;8.57;;;28.40;99.90;;;;;;4952575;29;20548;-70
2021/07/16 14:45:40;;;;;;;13.60;8.50;;;28.40;99.90;;;;;;4947493;29;21021;-69
2021/07/16 14:48:07;;;;;;;13.90;8.40;;;28.40;99.90;;;;;;4952737;28;21008;-70
2021/07/16 14:50:33;;;;;;;11.00;7.87;;;28.60;99.90;;;;;;4956699;28;20493;-70
2021/07/16 14:53:01;;;;;;;9.57;8.40;;;28.60;99.90;;;;;;4952010;29;20478;-69
2021/07/16 14:55:29;;;;;;;13.07;8.37;;;28.70;99.90;;;;;;4951737;29;20479;-70
2021/07/16 14:57:55;;;;;;;9.70;8.10;;;28.70;99.90;;;;;;4952439;29;20468;-69
2021/07/16 15:00:25;;;;;;;10.03;8.80;;;28.80;99.90;;;;;;4949336;29;20479;-69
2021/07/16 15:02:52;;;;;;;11.27;7.93;;;29.00;99.90;;;;;;4947715;29;20477;-70
2021/07/16 15:05:18;;;;;;;10.30;7.40;;;29.10;99.90;;;;;;4938302;29;20531;-69
2021/07/16 15:07:45;;;;;;;8.60;7.77;;;29.20;99.90;;;;;;4938159;29;20477;-70
2021/07/16 15:10:12;;;;;;;10.20;7.50;;;29.20;99.90;;;;;;4945846;29;20477;-69
2021/07/16 15:12:40;;;;;;;9.30;8.20;;;29.10;99.90;;;;;;4941648;28;20561;-70
2021/07/16 15:15:07;;;;;;;9.77;7.33;;;28.90;99.90;;;;;;4953351;29;20474;-69
2021/07/16 15:17:34;;;;;;;8.13;7.43;;;28.90;99.90;;;;;;4949008;29;20471;-70
2021/07/16 15:20:01;;;;;;;12.87;7.53;;;28.80;99.90;;;;;;4936304;29;20471;-69
2021/07/16 15:22:28;;;;;;;12.30;9.10;;;29.00;99.90;;;;;;4935062;29;20488;-69
2021/07/16 15:24:54;;;;;;;13.60;7.80;;;29.00;99.90;;;;;;4948828;29;20474;-69
2021/07/16 15:27:21;;;;;;;14.83;8.30;;;29.00;99.90;;;;;;4949905;29;20466;-69
2021/07/16 15:29:49;;;;;;;10.23;7.77;;;29.10;99.90;;;;;;4950402;29;20860;-69
2021/07/16 15:32:16;;;;;;;9.60;7.80;;;29.10;99.90;;;;;;4952642;29;20990;-71
2021/07/16 15:34:42;;;;;;;11.07;8.27;;;29.00;99.90;;;;;;4939087;29;20559;-69
2021/07/16 15:37:09;;;;;;;10.97;8.23;;;28.90;99.90;;;;;;4937366;29;20465;-69
2021/07/16 15:39:36;;;;;;;15.70;10.37;;;28.70;99.90;;;;;;4944727;29;20538;-69
2021/07/16 15:42:03;;;;;;;10.67;8.57;;;28.80;99.90;;;;;;4943141;29;20893;-69
2021/07/16 15:44:30;;;;;;;9.50;8.50;;;28.80;99.90;;;;;;4942800;29;20540;-69
2021/07/16 15:46:59;;;;;;;12.67;9.40;;;28.70;99.90;;;;;;4954835;29;20850;-69
2021/07/16 15:49:26;;;;;;;18.03;8.80;;;28.70;99.90;;;;;;4946321;29;20532;-69
2021/07/16 15:51:52;;;;;;;9.83;7.40;;;28.70;99.90;;;;;;4941473;29;20536;-71
2021/07/16 15:54:19;;;;;;;10.30;8.77;;;28.70;99.90;;;;;;4952674;29;20549;-69
2021/07/16 15:56:46;;;;;;;8.00;7.30;;;28.70;99.90;;;;;;4944190;29;20466;-69
2021/07/16 15:59:12;;;;;;;9.07;8.07;;;28.70;99.90;;;;;;4950399;29;20501;-69
2021/07/16 16:01:39;;;;;;;11.77;7.53;;;28.70;99.90;;;;;;4945936;28;20521;-70
2021/07/16 16:04:07;;;;;;;12.03;8.00;;;28.60;99.90;;;;;;4943808;29;20472;-69
2021/07/16 16:06:34;;;;;;;8.97;8.07;;;28.60;99.90;;;;;;4955111;29;20998;-69
2021/07/16 16:09:00;;;;;;;9.10;7.00;;;28.50;99.90;;;;;;4950023;29;20490;-69
2021/07/16 16:11:27;;;;;;;14.57;8.77;;;28.40;99.90;;;;;;4952674;29;20570;-68
2021/07/16 16:13:54;;;;;;;7.97;7.33;;;28.30;99.90;;;;;;4940051;29;20963;-68
2021/07/16 16:16:20;;;;;;;8.33;7.53;;;28.30;99.90;;;;;;4946115;29;20551;-68
2021/07/16 16:18:47;;;;;;;10.50;7.60;;;28.20;99.90;;;;;;4939658;28;20502;-68
2021/07/16 16:21:17;;;;;;;9.10;7.10;;;28.30;99.90;;;;;;4954435;29;20485;-68
2021/07/16 16:23:43;;;;;;;8.60;7.70;;;28.30;99.90;;;;;;4952636;29;20466;-71
2021/07/16 16:26:10;;;;;;;10.57;7.23;;;28.30;99.90;;;;;;4953244;28;20485;-71
2021/07/16 16:28:37;;;;;;;10.63;7.50;;;28.30;99.90;;;;;;4952259;29;20563;-71
2021/07/16 16:31:04;;;;;;;8.10;7.10;;;28.20;99.90;;;;;;4940976;29;21078;-69
2021/07/16 16:33:34;;;;;;;8.17;7.20;;;28.20;99.90;;;;;;4952507;29;20953;-71
2021/07/16 16:36:02;;;;;;;8.90;7.37;;;28.00;99.90;;;;;;4934995;29;20454;-68
2021/07/16 16:38:30;;;;;;;10.20;7.30;;;27.90;99.90;;;;;;4943265;29;20961;-68
2021/07/16 16:40:57;;;;;;;13.70;8.90;;;27.90;99.90;;;;;;4952881;29;20648;-68